Time;durP1;ratioP1;P1;durP2;ratioP2;P2;SDS_P1;SDS_P2;PMS_P1;PMS_P2;Temp;Humidity;BMP_temperature;BMP_pressure;BME280_temperature;BME280_humidity;BME280_pressure;Samples;Min_cycle;Max_cycle;Signal;HPM_P1;HPM_P2
2022/12/18 00:00:53;;;;;;;9.13;8.37;;;-5.40;99.90;;;;;;4968500;28;20182;-65
2022/12/18 00:03:19;;;;;;;10.73;9.03;;;-5.50;99.90;;;;;;4977883;28;20555;-65
2022/12/18 00:05:49;;;;;;;9.60;7.83;;;-5.50;99.90;;;;;;4969611;28;20178;-65
2022/12/18 00:08:15;;;;;;;9.50;8.73;;;-5.50;99.90;;;;;;4969577;28;20744;-66
2022/12/18 00:10:40;;;;;;;9.20;8.40;;;-5.50;99.90;;;;;;4969138;28;20181;-66
2022/12/18 00:13:06;;;;;;;10.23;9.47;;;-5.50;99.90;;;;;;4986690;28;20455;-66
2022/12/18 00:15:34;;;;;;;9.57;9.13;;;-5.40;99.90;;;;;;4988621;28;20568;-65
2022/12/18 00:17:59;;;;;;;9.57;8.87;;;-5.40;99.90;;;;;;4972717;28;20596;-66
2022/12/18 00:20:25;;;;;;;9.03;8.23;;;-5.40;99.90;;;;;;4967662;28;20266;-66
2022/12/18 00:22:52;;;;;;;9.00;8.13;;;-5.40;99.90;;;;;;4983476;28;20665;-65
2022/12/18 00:25:18;;;;;;;9.47;8.63;;;-5.40;99.90;;;;;;4986051;28;20189;-65
2022/12/18 00:27:44;;;;;;;8.70;8.30;;;-5.40;99.90;;;;;;4988410;28;20676;-66
2022/12/18 00:30:10;;;;;;;11.33;10.53;;;-5.40;99.90;;;;;;4988281;28;20300;-66
2022/12/18 00:32:35;;;;;;;10.47;9.57;;;-5.40;99.90;;;;;;4970880;28;20189;-65
2022/12/18 00:35:01;;;;;;;9.97;9.17;;;-5.40;99.90;;;;;;4968337;28;20216;-65
2022/12/18 00:37:27;;;;;;;10.37;9.67;;;-5.50;99.90;;;;;;4984747;28;20228;-66
2022/12/18 00:39:52;;;;;;;8.53;8.13;;;-5.50;99.90;;;;;;4988184;28;20176;-66
2022/12/18 00:45:02;;;;;;;9.70;9.10;;;-5.50;99.90;;;;;;4969041;28;20265;-66
2022/12/18 00:47:28;;;;;;;9.03;8.33;;;-5.60;99.90;;;;;;4982367;28;20228;-66
2022/12/18 00:49:54;;;;;;;8.63;8.23;;;-5.70;99.90;;;;;;4988032;28;20281;-66
2022/12/18 00:52:19;;;;;;;8.77;8.37;;;-5.70;99.90;;;;;;4974718;28;20200;-65
2022/12/18 00:54:45;;;;;;;9.67;8.73;;;-5.70;99.90;;;;;;4968911;28;20209;-66
2022/12/18 00:57:10;;;;;;;9.60;9.00;;;-5.70;99.90;;;;;;4983247;28;20616;-66
2022/12/18 00:59:36;;;;;;;10.57;9.80;;;-5.70;99.90;;;;;;4990896;28;20215;-66
2022/12/18 01:02:01;;;;;;;9.77;9.07;;;-5.70;99.90;;;;;;4981460;28;20188;-66
2022/12/18 01:04:27;;;;;;;8.93;8.50;;;-5.70;99.90;;;;;;4971964;28;20174;-66
2022/12/18 01:06:52;;;;;;;8.80;8.40;;;-5.70;99.90;;;;;;4979893;28;20205;-66
2022/12/18 01:09:18;;;;;;;9.57;8.63;;;-5.70;99.90;;;;;;4991074;28;20199;-65
2022/12/18 01:11:43;;;;;;;9.27;8.87;;;-5.70;99.90;;;;;;4984826;28;20193;-65
2022/12/18 01:14:09;;;;;;;8.23;7.83;;;-5.70;99.90;;;;;;4972088;28;20464;-66
2022/12/18 01:16:35;;;;;;;9.63;8.83;;;-5.50;99.90;;;;;;4977267;28;20205;-66
2022/12/18 01:19:01;;;;;;;8.93;8.53;;;-5.70;99.90;;;;;;4991147;28;20184;-66
2022/12/18 01:21:26;;;;;;;8.20;7.83;;;-5.70;99.90;;;;;;4980768;28;20182;-66
2022/12/18 01:23:56;;;;;;;9.23;8.73;;;-5.70;99.90;;;;;;4971295;28;20570;-66
2022/12/18 01:26:23;;;;;;;10.50;9.90;;;-5.60;99.90;;;;;;4980426;28;20508;-66
2022/12/18 01:28:48;;;;;;;8.53;7.77;;;-5.60;99.90;;;;;;4991061;28;20208;-66
2022/12/18 01:31:21;;;;;;;9.20;8.57;;;-5.60;99.90;;;;;;4983557;28;20208;-66
2022/12/18 01:33:47;;;;;;;10.83;8.60;;;-5.70;99.90;;;;;;4971972;28;20186;-66
2022/12/18 01:36:24;;;;;;;9.40;9.00;;;-5.70;99.90;;;;;;4978277;28;20215;-66
2022/12/18 01:38:51;;;;;;;12.40;9.10;;;-5.70;99.90;;;;;;4991050;28;20199;-66
2022/12/18 01:41:20;;;;;;;8.50;8.10;;;-5.80;99.90;;;;;;4983905;28;20549;-66
2022/12/18 01:43:48;;;;;;;9.50;8.67;;;-5.80;99.90;;;;;;4971673;28;20188;-66
2022/12/18 01:46:14;;;;;;;9.83;9.23;;;-5.80;99.90;;;;;;4975689;28;20281;-66
2022/12/18 01:48:41;;;;;;;8.87;8.27;;;-5.80;99.90;;;;;;4990860;28;20197;-66
2022/12/18 01:51:09;;;;;;;9.10;8.50;;;-5.80;99.90;;;;;;4986329;28;20552;-66
2022/12/18 01:53:37;;;;;;;9.97;9.27;;;-5.90;99.90;;;;;;4971327;28;20260;-66
2022/12/18 01:56:03;;;;;;;10.03;9.37;;;-5.90;99.90;;;;;;4972701;28;20209;-66
2022/12/18 01:58:46;;;;;;;9.27;8.87;;;-5.80;99.90;;;;;;4990497;28;20196;-66
2022/12/18 02:01:12;;;;;;;9.90;9.40;;;-5.80;99.90;;;;;;4986310;28;20247;-66
2022/12/18 02:03:42;;;;;;;9.70;9.30;;;-5.80;99.90;;;;;;4971226;28;20205;-66
2022/12/18 02:06:23;;;;;;;8.60;8.23;;;-5.80;99.90;;;;;;4973495;28;20189;-66
2022/12/18 02:09:13;;;;;;;10.23;9.77;;;-5.80;99.90;;;;;;4989900;28;20204;-66
2022/12/18 02:12:00;;;;;;;10.40;9.67;;;-5.70;99.90;;;;;;4983873;28;20322;-65
2022/12/18 02:14:38;;;;;;;9.60;9.00;;;-5.70;99.90;;;;;;4970984;28;20575;-66
2022/12/18 02:17:20;;;;;;;9.23;8.73;;;-5.60;99.90;;;;;;4978217;28;20677;-66
2022/12/18 02:20:07;;;;;;;8.90;8.50;;;-5.60;99.90;;;;;;4970752;28;20202;-66
2022/12/18 02:23:04;;;;;;;9.90;9.10;;;-5.60;99.90;;;;;;4983219;28;20177;-66
2022/12/18 02:25:59;;;;;;;11.17;10.33;;;-5.60;99.90;;;;;;4982802;28;20252;-66
2022/12/18 02:28:30;;;;;;;9.17;8.53;;;-5.60;99.90;;;;;;5069985;22;20237;-63
2022/12/18 02:31:00;;;;;;;9.87;9.17;;;-5.60;99.90;;;;;;5072431;28;20162;-63
2022/12/18 02:33:29;;;;;;;11.10;10.23;;;-5.60;99.90;;;;;;5072689;28;20205;-63
2022/12/18 02:35:57;;;;;;;9.73;8.93;;;-5.60;99.90;;;;;;5072406;28;20674;-66
2022/12/18 02:38:24;;;;;;;8.77;8.37;;;-5.70;99.90;;;;;;5072311;28;20186;-64
2022/12/18 02:40:52;;;;;;;8.53;8.17;;;-5.70;99.90;;;;;;5072303;28;20185;-64
2022/12/18 02:43:18;;;;;;;10.13;9.67;;;-5.80;99.90;;;;;;5072490;28;20576;-62
2022/12/18 02:45:54;;;;;;;11.00;9.63;;;-5.80;99.90;;;;;;5082763;28;20318;-63
2022/12/18 02:48:24;;;;;;;10.77;10.07;;;-5.80;99.90;;;;;;5092429;28;20215;-63
2022/12/18 02:51:31;;;;;;;9.00;8.50;;;-5.80;99.90;;;;;;5081445;28;20236;-64
2022/12/18 02:54:08;;;;;;;10.33;9.70;;;-5.80;99.90;;;;;;5071703;28;20327;-64
2022/12/18 02:56:45;;;;;;;8.83;8.43;;;-5.80;99.90;;;;;;5088381;28;20695;-64
2022/12/18 02:59:23;;;;;;;9.30;8.80;;;-5.70;99.90;;;;;;5092222;28;20189;-64
2022/12/18 03:01:58;;;;;;;8.37;7.97;;;-5.70;99.90;;;;;;5074541;28;20689;-64
2022/12/18 03:04:34;;;;;;;9.37;8.90;;;-5.70;99.90;;;;;;5076898;28;20165;-63
2022/12/18 03:07:04;;;;;;;9.13;8.73;;;-5.90;99.90;;;;;;5091433;28;20189;-64
2022/12/18 03:09:38;;;;;;;11.37;10.77;;;-5.70;99.90;;;;;;5083953;28;20185;-63
2022/12/18 03:12:24;;;;;;;9.50;9.00;;;-5.70;99.90;;;;;;5090339;28;20177;-63
2022/12/18 03:15:02;;;;;;;8.07;7.73;;;-5.70;99.90;;;;;;5091995;28;20181;-64
2022/12/18 03:17:31;;;;;;;8.30;8.00;;;-5.70;99.90;;;;;;5051958;28;20260;-64
2022/12/18 03:20:02;;;;;;;8.67;8.27;;;-5.70;99.90;;;;;;5066835;28;20169;-64
2022/12/18 03:22:31;;;;;;;9.10;8.50;;;-5.70;99.90;;;;;;5090677;28;20173;-64
2022/12/18 03:25:00;;;;;;;9.93;9.33;;;-5.70;99.90;;;;;;5084779;28;20170;-64
2022/12/18 03:27:27;;;;;;;8.30;7.90;;;-5.70;99.90;;;;;;5071463;28;20201;-64
2022/12/18 03:30:02;;;;;;;9.17;8.67;;;-5.70;99.90;;;;;;5075579;28;20238;-64
2022/12/18 03:32:32;;;;;;;8.87;8.47;;;-5.80;99.90;;;;;;5091774;28;20175;-64
2022/12/18 03:35:02;;;;;;;10.07;9.57;;;-5.80;99.90;;;;;;5091168;28;20236;-64
2022/12/18 03:37:28;;;;;;;9.27;8.70;;;-5.80;99.90;;;;;;5091834;28;20245;-64
2022/12/18 03:39:53;;;;;;;12.17;9.00;;;-5.80;99.90;;;;;;5086929;28;20174;-65
2022/12/18 03:42:43;;;;;;;10.00;9.33;;;-5.80;99.90;;;;;;5071645;28;20173;-62
2022/12/18 03:45:20;;;;;;;9.93;9.43;;;-5.90;99.90;;;;;;5077180;28;20238;-64
2022/12/18 03:48:05;;;;;;;10.17;9.67;;;-5.90;99.90;;;;;;5091725;28;20193;-64
2022/12/18 03:50:49;;;;;;;10.73;10.03;;;-5.90;99.90;;;;;;5083011;28;20614;-64
2022/12/18 03:53:20;;;;;;;9.07;8.67;;;-5.90;99.90;;;;;;5071514;28;20211;-64
2022/12/18 03:55:49;;;;;;;10.43;9.70;;;-5.90;99.90;;;;;;5080910;28;20235;-64
2022/12/18 03:58:20;;;;;;;10.33;9.47;;;-5.80;99.90;;;;;;5091529;28;20193;-64
2022/12/18 04:00:47;;;;;;;11.80;10.90;;;-5.80;99.90;;;;;;5082263;28;20238;-64
2022/12/18 04:03:14;;;;;;;8.80;7.87;;;-5.80;99.90;;;;;;5071359;28;20212;-64
2022/12/18 04:05:42;;;;;;;8.27;7.63;;;-5.80;99.90;;;;;;5078756;28;20254;-64
2022/12/18 04:08:08;;;;;;;9.63;8.93;;;-5.80;99.90;;;;;;5091523;28;20189;-64
2022/12/18 04:10:34;;;;;;;9.63;9.03;;;-5.70;99.90;;;;;;5085019;28;20190;-64
2022/12/18 04:13:00;;;;;;;8.77;8.27;;;-5.70;99.90;;;;;;5071358;28;20240;-64
2022/12/18 04:15:25;;;;;;;8.93;8.40;;;-5.70;99.90;;;;;;5074964;28;20258;-64
2022/12/18 04:17:51;;;;;;;10.03;9.10;;;-5.70;99.90;;;;;;5091544;28;20677;-64
2022/12/18 04:20:17;;;;;;;13.07;9.17;;;-5.70;99.90;;;;;;5089004;28;20174;-64
2022/12/18 04:22:43;;;;;;;9.67;9.10;;;-5.70;99.90;;;;;;5071463;28;20217;-64
2022/12/18 04:25:08;;;;;;;7.87;7.57;;;-5.70;99.90;;;;;;5071224;28;20269;-64
2022/12/18 04:27:34;;;;;;;9.83;9.33;;;-5.70;99.90;;;;;;5091253;28;20212;-64
2022/12/18 04:30:00;;;;;;;9.47;8.67;;;-5.70;99.90;;;;;;5091417;28;20676;-64
2022/12/18 04:32:26;;;;;;;10.43;9.63;;;-5.70;99.90;;;;;;5076153;28;20586;-64
2022/12/18 04:34:51;;;;;;;8.47;8.07;;;-5.80;99.90;;;;;;5073610;28;20235;-64
2022/12/18 04:37:17;;;;;;;9.33;8.83;;;-5.80;99.90;;;;;;5091670;28;20197;-64
2022/12/18 04:39:43;;;;;;;9.23;8.80;;;-5.80;99.90;;;;;;5094985;28;20690;-64
2022/12/18 04:42:08;;;;;;;14.70;8.43;;;-5.80;99.90;;;;;;5093386;28;20173;-64
2022/12/18 04:44:34;;;;;;;10.17;9.57;;;-5.80;99.90;;;;;;5095008;28;20174;-64
2022/12/18 04:47:00;;;;;;;10.23;9.63;;;-6.20;99.90;;;;;;5094127;28;20268;-64
2022/12/18 04:49:25;;;;;;;8.77;8.27;;;-5.80;99.90;;;;;;5094640;28;20715;-64
2022/12/18 04:51:51;;;;;;;10.23;9.17;;;-5.70;99.90;;;;;;5095037;28;20204;-63
2022/12/18 04:54:20;;;;;;;9.73;9.10;;;-5.70;99.90;;;;;;5094865;28;20184;-64
2022/12/18 04:56:45;;;;;;;10.23;9.63;;;-5.80;99.90;;;;;;5084756;28;20213;-64
2022/12/18 04:59:11;;;;;;;9.33;8.83;;;-5.80;99.90;;;;;;5073911;28;20202;-64
2022/12/18 05:01:37;;;;;;;10.37;9.87;;;-5.80;99.90;;;;;;5074326;28;20210;-64
2022/12/18 05:04:03;;;;;;;8.73;8.13;;;-5.80;99.90;;;;;;5074254;28;20273;-64
2022/12/18 05:06:28;;;;;;;9.23;8.83;;;-5.80;99.90;;;;;;5080169;28;20211;-64
2022/12/18 05:08:54;;;;;;;9.10;8.40;;;-5.70;99.90;;;;;;5094373;28;20201;-64
2022/12/18 05:11:19;;;;;;;8.63;8.17;;;-5.70;99.90;;;;;;5093546;28;20177;-64
2022/12/18 05:13:45;;;;;;;8.90;8.37;;;-5.60;99.90;;;;;;5094466;28;20178;-64
2022/12/18 05:16:12;;;;;;;9.57;8.97;;;-5.60;99.90;;;;;;5091595;28;20256;-63
2022/12/18 05:18:38;;;;;;;9.10;8.60;;;-5.60;99.90;;;;;;5073994;28;20766;-63
2022/12/18 05:21:03;;;;;;;9.10;8.60;;;-5.50;99.90;;;;;;5091471;28;20209;-63
2022/12/18 05:23:29;;;;;;;10.07;9.17;;;-5.50;99.90;;;;;;5093898;28;20652;-64
2022/12/18 05:25:57;;;;;;;9.67;8.73;;;-5.50;99.90;;;;;;5077521;28;20235;-64
2022/12/18 05:28:24;;;;;;;8.40;7.90;;;-5.50;99.90;;;;;;5073497;28;20300;-64
2022/12/18 05:30:51;;;;;;;9.93;9.33;;;-5.50;99.90;;;;;;5074920;28;20593;-63
2022/12/18 05:33:18;;;;;;;10.57;9.67;;;-5.50;99.90;;;;;;5073927;28;20467;-64
2022/12/18 05:35:44;;;;;;;9.60;9.10;;;-5.50;99.90;;;;;;5086939;28;20204;-64
2022/12/18 05:38:10;;;;;;;8.63;7.80;;;-5.50;99.90;;;;;;5094010;28;20222;-64
2022/12/18 05:40:36;;;;;;;8.93;8.20;;;-5.50;99.90;;;;;;5082205;28;20260;-64
2022/12/18 05:43:02;;;;;;;9.87;9.17;;;-5.50;99.90;;;;;;5073613;28;20170;-64
2022/12/18 05:45:27;;;;;;;9.97;9.03;;;-5.50;99.90;;;;;;5081821;28;20235;-63
2022/12/18 05:47:53;;;;;;;8.67;8.27;;;-5.50;99.90;;;;;;5094350;28;20246;-64
2022/12/18 05:50:19;;;;;;;8.67;8.20;;;-5.50;99.90;;;;;;5104374;28;20260;-64
2022/12/18 05:52:44;;;;;;;8.80;8.30;;;-5.50;99.90;;;;;;5108217;28;20236;-64
2022/12/18 05:55:10;;;;;;;9.30;8.67;;;-5.50;99.90;;;;;;5100237;28;20313;-64
2022/12/18 05:57:35;;;;;;;9.93;9.13;;;-5.40;99.90;;;;;;5074203;28;20606;-64
2022/12/18 06:00:01;;;;;;;8.37;7.80;;;-5.40;99.90;;;;;;5076569;28;20215;-64
2022/12/18 06:02:27;;;;;;;10.43;9.83;;;-5.40;99.90;;;;;;5093731;28;20680;-64
2022/12/18 06:04:52;;;;;;;9.43;8.93;;;-5.40;99.90;;;;;;5092553;28;20169;-64
2022/12/18 06:07:18;;;;;;;8.73;8.33;;;-5.40;99.90;;;;;;5093362;28;20705;-64
2022/12/18 06:09:44;;;;;;;9.90;9.40;;;-5.40;99.90;;;;;;5092899;28;20169;-64
2022/12/18 06:12:10;;;;;;;9.13;8.63;;;-5.50;99.90;;;;;;5093079;28;20630;-64
2022/12/18 06:14:36;;;;;;;9.53;9.03;;;-5.50;99.90;;;;;;5092133;28;20177;-64
2022/12/18 06:17:01;;;;;;;10.13;9.63;;;-5.30;99.90;;;;;;5074327;28;20214;-64
2022/12/18 06:19:27;;;;;;;9.20;8.77;;;-5.50;99.90;;;;;;5072777;28;20208;-64
2022/12/18 06:21:53;;;;;;;8.20;7.80;;;-5.40;99.90;;;;;;5072842;28;20604;-63
2022/12/18 06:24:18;;;;;;;8.97;8.57;;;-5.40;99.90;;;;;;5072118;28;20174;-62
2022/12/18 06:26:44;;;;;;;9.47;9.00;;;-5.40;99.90;;;;;;5083347;28;20802;-64
2022/12/18 06:29:09;;;;;;;9.53;9.07;;;-5.40;99.90;;;;;;5074210;28;20297;-64
2022/12/18 06:31:35;;;;;;;8.00;7.70;;;-5.40;99.90;;;;;;5072496;28;20182;-65
2022/12/18 06:34:04;;;;;;;9.77;9.17;;;-5.40;99.90;;;;;;5072545;28;20695;-64
2022/12/18 06:36:30;;;;;;;9.90;9.20;;;-5.40;99.90;;;;;;5081786;28;20208;-64
2022/12/18 06:38:56;;;;;;;11.87;10.77;;;-5.50;99.90;;;;;;5092529;28;20239;-64
2022/12/18 06:41:22;;;;;;;9.57;9.07;;;-5.50;99.90;;;;;;5081947;28;20174;-64
2022/12/18 06:43:47;;;;;;;10.07;9.20;;;-5.40;99.90;;;;;;5072505;28;20178;-64
2022/12/18 06:46:13;;;;;;;8.20;7.90;;;-5.50;99.90;;;;;;5079105;28;20235;-64
2022/12/18 06:48:40;;;;;;;8.40;8.10;;;-5.50;99.90;;;;;;5092520;28;20193;-64
2022/12/18 06:51:06;;;;;;;9.90;9.40;;;-5.40;99.90;;;;;;5086753;28;20181;-64
2022/12/18 06:53:32;;;;;;;8.63;8.17;;;-5.40;99.90;;;;;;5071571;28;20178;-64
2022/12/18 06:56:06;;;;;;;10.77;9.53;;;-5.40;99.90;;;;;;5091275;28;20289;-64
2022/12/18 06:58:32;;;;;;;13.53;9.60;;;-5.40;99.90;;;;;;5092543;28;20612;-64
2022/12/18 07:01:06;;;;;;;9.53;9.13;;;-5.40;99.90;;;;;;5075324;28;20182;-64
2022/12/18 07:03:31;;;;;;;9.43;8.97;;;-5.30;99.90;;;;;;5090564;28;20634;-63
2022/12/18 07:05:57;;;;;;;9.10;8.53;;;-5.30;99.90;;;;;;5092587;28;20256;-63
2022/12/18 07:08:23;;;;;;;9.80;8.90;;;-5.40;99.90;;;;;;5075074;28;20214;-64
2022/12/18 07:10:49;;;;;;;8.13;7.80;;;-5.30;99.90;;;;;;5071809;28;20269;-64
2022/12/18 07:13:16;;;;;;;8.93;8.53;;;-5.30;99.90;;;;;;5084824;28;20283;-65
2022/12/18 07:15:42;;;;;;;9.67;9.27;;;-5.30;99.90;;;;;;5071796;28;20212;-64
2022/12/18 07:18:08;;;;;;;9.63;9.13;;;-5.30;99.90;;;;;;5081507;28;20193;-64
2022/12/18 07:20:33;;;;;;;9.47;8.77;;;-5.30;99.90;;;;;;5080051;28;20200;-64
2022/12/18 07:23:02;;;;;;;11.30;10.43;;;-5.20;99.90;;;;;;5071717;28;20206;-64
2022/12/18 07:25:28;;;;;;;10.73;9.83;;;-5.30;99.90;;;;;;5082022;28;20216;-64
2022/12/18 07:27:55;;;;;;;10.70;10.00;;;-5.20;99.90;;;;;;5091801;28;20361;-64
2022/12/18 07:30:20;;;;;;;8.43;8.03;;;-5.20;99.90;;;;;;5082959;28;20645;-65
2022/12/18 07:32:46;;;;;;;8.30;7.90;;;-5.20;99.90;;;;;;5072036;28;20627;-64
2022/12/18 07:35:11;;;;;;;9.03;8.43;;;-5.20;99.90;;;;;;5077575;28;20216;-64
2022/12/18 07:37:37;;;;;;;8.40;7.90;;;-5.20;99.90;;;;;;5091648;28;20196;-64
2022/12/18 07:40:03;;;;;;;8.67;8.27;;;-5.20;99.90;;;;;;5086821;28;20222;-65
2022/12/18 07:42:31;;;;;;;10.33;9.53;;;-5.20;99.90;;;;;;5071542;28;20215;-64
2022/12/18 07:44:58;;;;;;;9.13;8.73;;;-5.20;99.90;;;;;;5074102;28;20706;-64
2022/12/18 07:47:23;;;;;;;9.03;8.50;;;-5.10;99.90;;;;;;5090268;28;20196;-64
2022/12/18 07:49:49;;;;;;;9.37;8.57;;;-5.10;99.90;;;;;;5088555;28;20558;-64
2022/12/18 07:52:15;;;;;;;8.70;8.30;;;-5.10;99.90;;;;;;5091579;28;20594;-64
2022/12/18 07:54:41;;;;;;;10.37;9.70;;;-5.00;99.90;;;;;;5091499;28;20256;-64
2022/12/18 07:57:07;;;;;;;9.63;9.23;;;-5.00;99.90;;;;;;5071328;28;20193;-64
2022/12/18 07:59:33;;;;;;;10.50;9.90;;;-5.00;99.90;;;;;;5072091;28;20178;-64
2022/12/18 08:01:58;;;;;;;10.67;9.97;;;-4.90;99.90;;;;;;5071112;28;20174;-63
2022/12/18 08:04:25;;;;;;;9.33;8.90;;;-4.90;99.90;;;;;;5072224;28;20646;-64
2022/12/18 08:06:51;;;;;;;12.17;11.03;;;-4.80;99.90;;;;;;5094196;28;20181;-64
2022/12/18 08:09:17;;;;;;;9.57;8.80;;;-4.90;99.90;;;;;;5093181;28;20181;-64
2022/12/18 08:11:43;;;;;;;11.33;10.47;;;-4.80;99.90;;;;;;5075466;28;20178;-64
2022/12/18 08:14:08;;;;;;;10.70;9.90;;;-4.70;99.90;;;;;;5075245;28;20177;-63
2022/12/18 08:16:34;;;;;;;8.77;8.37;;;-4.60;99.90;;;;;;5095288;28;20581;-64
2022/12/18 08:19:00;;;;;;;10.57;9.93;;;-4.50;99.90;;;;;;5076796;28;20247;-64
2022/12/18 08:21:28;;;;;;;10.07;9.07;;;-4.50;99.90;;;;;;5093221;28;20165;-64
2022/12/18 08:23:56;;;;;;;9.67;9.20;;;-4.40;99.90;;;;;;5093303;28;20325;-64
2022/12/18 08:26:23;;;;;;;12.27;11.60;;;-4.30;99.90;;;;;;5093658;28;20608;-64
2022/12/18 08:28:50;;;;;;;10.23;9.73;;;-4.20;99.90;;;;;;5075575;22;20623;-67
2022/12/18 08:31:15;;;;;;;9.63;9.13;;;-4.20;99.90;;;;;;5050192;28;20213;-67
2022/12/18 08:33:41;;;;;;;11.03;10.33;;;-4.10;99.90;;;;;;5054803;28;20595;-67
2022/12/18 08:36:09;;;;;;;9.73;9.13;;;-4.00;99.90;;;;;;5021687;28;20221;-68
2022/12/18 08:38:35;;;;;;;11.07;10.20;;;-4.00;99.90;;;;;;5034436;28;20191;-67
2022/12/18 08:41:06;;;;;;;9.97;8.97;;;-3.90;99.90;;;;;;5033796;28;20667;-67
2022/12/18 08:46:21;;;;;;;11.80;10.67;;;-3.80;99.90;;;;;;5034282;28;20195;-68
2022/12/18 08:48:48;;;;;;;11.80;10.87;;;-3.70;99.90;;;;;;5034252;28;20201;-65
2022/12/18 08:51:16;;;;;;;10.20;8.07;;;-3.60;99.90;;;;;;5015707;28;20206;-65
2022/12/18 08:53:41;;;;;;;8.17;7.73;;;-3.50;99.90;;;;;;5034339;28;20301;-66
2022/12/18 08:56:07;;;;;;;8.50;8.00;;;-3.40;99.90;;;;;;5034114;28;20237;-65
2022/12/18 08:58:33;;;;;;;9.40;8.80;;;-3.30;99.90;;;;;;5033487;28;20210;-65
2022/12/18 09:01:08;;;;;;;10.83;9.97;;;-3.10;99.90;;;;;;5015851;28;20174;-68
2022/12/18 09:03:34;;;;;;;10.80;9.63;;;-2.80;99.90;;;;;;5033726;28;20186;-66
2022/12/18 09:06:00;;;;;;;9.23;8.73;;;-2.50;99.90;;;;;;5016278;28;20183;-65
2022/12/18 09:08:26;;;;;;;10.00;8.90;;;-2.30;99.90;;;;;;5015780;28;20203;-66
2022/12/18 09:10:52;;;;;;;10.03;9.07;;;-2.10;99.90;;;;;;5033685;28;20550;-65
2022/12/18 09:13:18;;;;;;;9.87;8.97;;;-1.90;99.90;;;;;;5033316;28;20176;-65
2022/12/18 09:15:46;;;;;;;9.70;8.67;;;-1.90;99.90;;;;;;5033248;28;20199;-66
2022/12/18 09:18:13;;;;;;;9.20;8.67;;;-1.80;90.80;;;;;;5033812;28;20211;-66
2022/12/18 09:20:39;;;;;;;20.10;11.07;;;-1.80;90.70;;;;;;5016021;28;20187;-65
2022/12/18 09:23:05;;;;;;;9.90;8.90;;;-1.80;71.90;;;;;;5033364;28;20172;-65
2022/12/18 09:25:33;;;;;;;9.53;8.77;;;-1.90;70.30;;;;;;5015216;28;20879;-65
2022/12/18 09:28:00;;;;;;;9.87;8.53;;;-1.70;85.30;;;;;;5033138;28;20203;-65
2022/12/18 09:30:26;;;;;;;9.80;8.73;;;-1.50;92.40;;;;;;5030827;28;20176;-65
2022/12/18 09:32:51;;;;;;;9.03;8.23;;;-1.30;90.30;;;;;;5033125;28;20640;-65
2022/12/18 09:35:17;;;;;;;9.90;9.07;;;-1.00;92.30;;;;;;5033155;28;20203;-65
2022/12/18 09:37:43;;;;;;;8.27;7.67;;;-0.90;40.00;;;;;;5033104;28;20195;-66
2022/12/18 09:40:16;;;;;;;9.97;8.50;;;-0.80;16.60;;;;;;5015352;28;20172;-65
2022/12/18 09:42:47;;;;;;;12.30;10.43;;;-0.70;24.90;;;;;;5015686;28;20259;-65
2022/12/18 09:45:15;;;;;;;9.87;9.20;;;-0.70;8.90;;;;;;5013356;28;20656;-65
2022/12/18 09:47:42;;;;;;;9.47;8.77;;;-0.70;19.20;;;;;;5013314;28;20192;-66
2022/12/18 09:50:29;;;;;;;9.53;8.73;;;-0.60;32.80;;;;;;5014821;28;20266;-66
2022/12/18 09:52:59;;;;;;;11.37;9.83;;;-0.60;1.00;;;;;;5032789;28;20168;-66
2022/12/18 09:55:35;;;;;;;8.30;7.70;;;-0.60;8.20;;;;;;5014854;28;20242;-66
2022/12/18 09:58:11;;;;;;;9.33;8.43;;;-0.60;3.00;;;;;;5033273;28;20282;-66
2022/12/18 10:00:37;;;;;;;13.10;10.17;;;-0.70;1.00;;;;;;5032619;28;20183;-66
2022/12/18 10:03:12;;;;;;;10.53;9.63;;;-0.70;16.00;;;;;;5032530;28;20326;-66
2022/12/18 10:05:47;;;;;;;9.70;8.90;;;-0.90;1.00;;;;;;5033196;28;20342;-64
2022/12/18 10:08:40;;;;;;;8.87;8.27;;;-0.90;5.50;;;;;;5032610;28;20195;-65
2022/12/18 10:11:27;;;;;;;9.00;8.30;;;-1.00;6.40;;;;;;5032651;28;20183;-66
2022/12/18 10:14:00;;;;;;;10.23;8.97;;;-1.00;15.40;;;;;;5031803;28;20179;-65
2022/12/18 10:16:31;;;;;;;10.80;9.93;;;-0.90;13.30;;;;;;5032742;28;20213;-66
2022/12/18 10:19:18;;;;;;;10.37;9.33;;;-0.90;17.80;;;;;;5014560;28;20202;-68
2022/12/18 10:22:18;;;;;;;8.93;8.37;;;-0.90;17.60;;;;;;5032882;28;20619;-66
2022/12/18 10:24:53;;;;;;;9.60;8.70;;;-0.80;10.10;;;;;;5031694;28;20175;-66
2022/12/18 10:27:22;;;;;;;8.80;8.13;;;-0.60;14.90;;;;;;5031934;28;20245;-66
2022/12/18 10:29:48;;;;;;;12.03;8.13;;;-0.70;1.00;;;;;;5031461;28;20246;-66
2022/12/18 10:32:24;;;;;;;9.70;8.90;;;-0.50;7.70;;;;;;5032376;28;20171;-67
2022/12/18 10:34:53;;;;;;;11.13;10.17;;;-0.40;1.90;;;;;;5047606;28;20175;-66
2022/12/18 10:37:23;;;;;;;8.23;7.60;;;-0.10;1.00;;;;;;5032033;28;20176;-66
2022/12/18 10:40:12;;;;;;;10.93;10.00;;;-0.40;1.00;;;;;;5031836;28;20190;-67
2022/12/18 10:42:38;;;;;;;8.43;7.63;;;-0.30;1.00;;;;;;5032205;28;20190;-66
2022/12/18 10:45:08;;;;;;;8.97;8.23;;;-0.20;1.00;;;;;;5031961;28;20179;-66
2022/12/18 10:47:34;;;;;;;14.70;9.63;;;-0.20;1.00;;;;;;5032304;28;20656;-65
2022/12/18 10:50:01;;;;;;;9.07;8.37;;;-0.20;1.00;;;;;;5031724;28;20179;-65
2022/12/18 10:52:27;;;;;;;11.77;8.03;;;-0.20;1.00;;;;;;5032144;28;20178;-66
2022/12/18 10:54:58;;;;;;;8.30;7.80;;;-0.30;1.00;;;;;;5031640;28;20179;-66
2022/12/18 10:57:31;;;;;;;9.70;8.67;;;-0.20;1.00;;;;;;5031654;28;20175;-66
2022/12/18 10:59:58;;;;;;;10.70;9.67;;;-0.30;1.00;;;;;;5031370;28;20532;-66
2022/12/18 11:02:35;;;;;;;8.80;8.30;;;-0.20;1.00;;;;;;5031795;28;20247;-67
2022/12/18 11:05:01;;;;;;;8.97;8.37;;;-0.20;1.00;;;;;;5031671;28;20528;-66
2022/12/18 11:07:48;;;;;;;8.40;7.67;;;-0.20;1.00;;;;;;5031597;28;20247;-66
2022/12/18 11:10:19;;;;;;;8.53;7.87;;;-0.20;1.00;;;;;;5030992;28;20183;-66
2022/12/18 11:12:44;;;;;;;10.30;7.80;;;-0.10;1.00;;;;;;5031684;28;20168;-66
2022/12/18 11:15:25;;;;;;;9.17;7.77;;;-0.10;1.00;;;;;;5031246;28;20198;-66
2022/12/18 11:17:51;;;;;;;12.03;8.80;;;0.00;1.00;;;;;;5031450;28;20187;-66
2022/12/18 11:20:26;;;;;;;8.03;7.53;;;0.00;1.00;;;;;;5031456;28;20167;-65
2022/12/18 11:23:10;;;;;;;9.30;8.17;;;0.00;1.00;;;;;;5013759;28;20550;-65
2022/12/18 11:25:36;;;;;;;11.47;7.97;;;-0.20;1.00;;;;;;5030798;28;20183;-65
2022/12/18 11:28:24;;;;;;;9.23;8.43;;;-0.20;1.00;;;;;;5031106;28;20211;-65
2022/12/18 11:31:09;;;;;;;9.57;8.23;;;-0.20;1.00;;;;;;5030813;28;20241;-65
2022/12/18 11:33:37;;;;;;;8.63;8.00;;;-0.20;1.00;;;;;;5031338;28;20179;-65
2022/12/18 11:36:07;;;;;;;8.43;7.83;;;-0.10;1.00;;;;;;5041004;28;20248;-65
2022/12/18 11:38:36;;;;;;;10.80;9.77;;;0.00;1.00;;;;;;5031280;28;20192;-66
2022/12/18 11:41:14;;;;;;;9.53;8.90;;;0.00;1.00;;;;;;5030552;28;20178;-66
2022/12/18 11:44:01;;;;;;;9.80;8.97;;;0.00;1.00;;;;;;5013675;28;20178;-66
2022/12/18 11:46:43;;;;;;;7.83;7.33;;;0.00;1.00;;;;;;5013282;28;20266;-66
2022/12/18 11:49:18;;;;;;;10.73;9.60;;;0.00;1.00;;;;;;5031104;28;20195;-66
2022/12/18 11:52:01;;;;;;;9.63;8.70;;;0.00;1.00;;;;;;5031100;28;20197;-65
2022/12/18 11:54:27;;;;;;;10.17;9.33;;;-0.10;1.00;;;;;;5013500;28;20175;-66
2022/12/18 11:57:04;;;;;;;8.43;7.73;;;-0.10;1.00;;;;;;5030800;28;20211;-66
2022/12/18 12:00:03;;;;;;;9.97;9.23;;;-0.10;1.00;;;;;;5031050;28;20691;-65
2022/12/18 12:03:06;;;;;;;11.67;9.53;;;-0.20;1.00;;;;;;5030958;28;20760;-66
2022/12/18 12:06:02;;;;;;;9.67;8.93;;;-0.20;1.00;;;;;;5030884;28;20254;-65
2022/12/18 12:08:33;;;;;;;9.67;8.97;;;-0.20;1.00;;;;;;5028699;28;20199;-65
2022/12/18 12:11:26;;;;;;;8.97;8.37;;;-0.20;1.00;;;;;;5030657;28;20194;-66
2022/12/18 12:14:14;;;;;;;8.70;7.87;;;-0.30;1.00;;;;;;5011588;28;20222;-66
2022/12/18 12:16:45;;;;;;;10.83;9.83;;;-0.30;1.00;;;;;;5014156;28;20200;-65
2022/12/18 12:19:23;;;;;;;10.43;9.63;;;-0.30;1.00;;;;;;5030630;28;20191;-65
2022/12/18 12:22:04;;;;;;;9.03;8.47;;;-0.20;1.00;;;;;;5030939;28;20175;-65
2022/12/18 12:24:39;;;;;;;8.53;7.77;;;-0.20;1.00;;;;;;5030195;28;20164;-67
2022/12/18 12:27:18;;;;;;;10.23;9.23;;;-0.20;1.00;;;;;;5030823;28;20190;-66
2022/12/18 12:30:05;;;;;;;8.90;8.20;;;-0.20;1.00;;;;;;5013176;28;20187;-66
2022/12/18 12:33:03;;;;;;;8.93;8.03;;;-0.20;1.00;;;;;;5030644;28;20207;-66
2022/12/18 12:35:43;;;;;;;8.17;7.63;;;-0.10;1.00;;;;;;5030761;28;20318;-66
2022/12/18 12:38:17;;;;;;;13.03;8.93;;;-0.20;1.00;;;;;;5030545;28;20627;-65
2022/12/18 12:40:51;;;;;;;9.83;8.93;;;-0.20;1.00;;;;;;5028804;28;20179;-66
2022/12/18 12:43:17;;;;;;;9.87;8.97;;;-0.20;1.00;;;;;;5012727;28;20194;-65
2022/12/18 12:46:05;;;;;;;13.33;9.30;;;-0.20;1.00;;;;;;5013144;28;20179;-66
2022/12/18 12:48:49;;;;;;;12.67;8.83;;;-0.20;1.00;;;;;;5012728;28;20656;-66
2022/12/18 12:51:22;;;;;;;9.97;9.27;;;-0.20;1.00;;;;;;5031226;28;20596;-66
2022/12/18 12:53:48;;;;;;;9.50;8.80;;;-0.20;1.00;;;;;;5034426;28;20176;-66
2022/12/18 12:56:17;;;;;;;8.97;8.23;;;-0.20;1.00;;;;;;5034217;28;20214;-66
2022/12/18 12:59:15;;;;;;;11.33;9.20;;;-0.20;1.00;;;;;;5034066;28;20242;-66
2022/12/18 13:02:25;;;;;;;10.53;9.53;;;-0.20;1.00;;;;;;5016533;28;20176;-66
2022/12/18 13:05:27;;;;;;;8.23;7.83;;;-0.20;1.00;;;;;;5006367;28;20216;-66
2022/12/18 13:08:02;;;;;;;7.90;7.50;;;-0.20;1.00;;;;;;5008405;28;20203;-65